sensor_id;sensor_type;location;lat;lon;timestamp;P1;durP1;ratioP1;P2;durP2;ratioP2
53714;SDS011;39608;55.630;37.864;2023-02-10T00:01:38;9.38;;;4.05;;
53714;SDS011;39608;55.630;37.864;2023-02-10T00:06:41;5.38;;;3.50;;
53714;SDS011;39608;55.630;37.864;2023-02-10T00:11:43;5.75;;;3.20;;
53714;SDS011;39608;55.630;37.864;2023-02-10T00:17:02;5.95;;;3.78;;
53714;SDS011;39608;55.630;37.864;2023-02-10T00:22:04;5.28;;;3.58;;
53714;SDS011;39608;55.630;37.864;2023-02-10T00:27:06;6.88;;;3.65;;
53714;SDS011;39608;55.630;37.864;2023-02-10T00:32:10;6.38;;;4.05;;
53714;SDS011;39608;55.630;37.864;2023-02-10T00:37:12;10.52;;;4.22;;
53714;SDS011;39608;55.630;37.864;2023-02-10T00:42:13;7.03;;;3.58;;
53714;SDS011;39608;55.630;37.864;2023-02-10T00:47:17;7.80;;;3.78;;
53714;SDS011;39608;55.630;37.864;2023-02-10T00:52:19;3.42;;;2.67;;
53714;SDS011;39608;55.630;37.864;2023-02-10T00:57:21;3.72;;;2.65;;
53714;SDS011;39608;55.630;37.864;2023-02-10T01:02:24;5.70;;;3.25;;
53714;SDS011;39608;55.630;37.864;2023-02-10T01:07:26;5.05;;;3.00;;
53714;SDS011;39608;55.630;37.864;2023-02-10T01:12:29;8.13;;;3.30;;
53714;SDS011;39608;55.630;37.864;2023-02-10T01:17:32;5.00;;;3.00;;
53714;SDS011;39608;55.630;37.864;2023-02-10T01:22:35;7.15;;;3.35;;
53714;SDS011;39608;55.630;37.864;2023-02-10T01:27:37;7.10;;;3.20;;
53714;SDS011;39608;55.630;37.864;2023-02-10T01:32:40;5.22;;;3.40;;
53714;SDS011;39608;55.630;37.864;2023-02-10T01:37:42;5.47;;;3.08;;
53714;SDS011;39608;55.630;37.864;2023-02-10T01:42:44;5.50;;;3.20;;
53714;SDS011;39608;55.630;37.864;2023-02-10T01:47:49;5.95;;;3.42;;
53714;SDS011;39608;55.630;37.864;2023-02-10T01:52:53;5.68;;;3.90;;
53714;SDS011;39608;55.630;37.864;2023-02-10T01:57:58;4.43;;;3.00;;
53714;SDS011;39608;55.630;37.864;2023-02-10T02:03:01;5.43;;;3.70;;
53714;SDS011;39608;55.630;37.864;2023-02-10T02:08:06;5.25;;;3.30;;
53714;SDS011;39608;55.630;37.864;2023-02-10T02:13:11;7.43;;;4.00;;
53714;SDS011;39608;55.630;37.864;2023-02-10T02:18:26;4.90;;;3.42;;
53714;SDS011;39608;55.630;37.864;2023-02-10T02:29:18;7.95;;;3.92;;
53714;SDS011;39608;55.630;37.864;2023-02-10T02:34:35;6.65;;;4.53;;
53714;SDS011;39608;55.630;37.864;2023-02-10T02:39:41;6.38;;;4.20;;
53714;SDS011;39608;55.630;37.864;2023-02-10T02:44:45;8.13;;;4.45;;
53714;SDS011;39608;55.630;37.864;2023-02-10T02:49:52;9.88;;;4.38;;
53714;SDS011;39608;55.630;37.864;2023-02-10T02:55:05;7.35;;;5.03;;
53714;SDS011;39608;55.630;37.864;2023-02-10T03:00:15;7.57;;;4.70;;
53714;SDS011;39608;55.630;37.864;2023-02-10T03:05:22;9.98;;;5.30;;
53714;SDS011;39608;55.630;37.864;2023-02-10T03:10:29;9.30;;;5.53;;
53714;SDS011;39608;55.630;37.864;2023-02-10T03:15:31;9.77;;;5.70;;
53714;SDS011;39608;55.630;37.864;2023-02-10T03:20:34;8.38;;;5.45;;
53714;SDS011;39608;55.630;37.864;2023-02-10T03:25:36;10.00;;;5.20;;
53714;SDS011;39608;55.630;37.864;2023-02-10T03:30:38;8.43;;;5.80;;
53714;SDS011;39608;55.630;37.864;2023-02-10T03:35:48;9.52;;;5.75;;
53714;SDS011;39608;55.630;37.864;2023-02-10T03:40:50;9.32;;;5.50;;
53714;SDS011;39608;55.630;37.864;2023-02-10T03:45:53;10.63;;;6.65;;
53714;SDS011;39608;55.630;37.864;2023-02-10T03:50:56;10.30;;;5.95;;
53714;SDS011;39608;55.630;37.864;2023-02-10T03:55:58;12.23;;;5.93;;
53714;SDS011;39608;55.630;37.864;2023-02-10T04:01:07;10.52;;;5.57;;
53714;SDS011;39608;55.630;37.864;2023-02-10T04:06:11;8.90;;;5.57;;
53714;SDS011;39608;55.630;37.864;2023-02-10T04:11:13;8.07;;;5.63;;
53714;SDS011;39608;55.630;37.864;2023-02-10T04:16:16;6.63;;;4.15;;
53714;SDS011;39608;55.630;37.864;2023-02-10T04:21:21;9.18;;;5.15;;
53714;SDS011;39608;55.630;37.864;2023-02-10T04:26:24;13.50;;;5.93;;
53714;SDS011;39608;55.630;37.864;2023-02-10T04:31:26;9.57;;;6.00;;
53714;SDS011;39608;55.630;37.864;2023-02-10T04:36:29;10.32;;;6.45;;
53714;SDS011;39608;55.630;37.864;2023-02-10T04:41:32;9.98;;;5.72;;
53714;SDS011;39608;55.630;37.864;2023-02-10T04:46:33;11.85;;;6.30;;
53714;SDS011;39608;55.630;37.864;2023-02-10T04:51:37;12.70;;;6.18;;
53714;SDS011;39608;55.630;37.864;2023-02-10T04:56:39;8.48;;;5.57;;
53714;SDS011;39608;55.630;37.864;2023-02-10T05:01:41;10.60;;;6.88;;
53714;SDS011;39608;55.630;37.864;2023-02-10T05:06:46;9.63;;;5.60;;
53714;SDS011;39608;55.630;37.864;2023-02-10T05:11:48;12.35;;;6.78;;
53714;SDS011;39608;55.630;37.864;2023-02-10T05:16:52;11.50;;;6.40;;
53714;SDS011;39608;55.630;37.864;2023-02-10T05:21:57;12.80;;;6.97;;
53714;SDS011;39608;55.630;37.864;2023-02-10T05:26:59;13.18;;;8.25;;
53714;SDS011;39608;55.630;37.864;2023-02-10T05:32:01;11.55;;;6.55;;
53714;SDS011;39608;55.630;37.864;2023-02-10T05:37:04;13.20;;;6.45;;
53714;SDS011;39608;55.630;37.864;2023-02-10T05:42:08;13.70;;;7.90;;
53714;SDS011;39608;55.630;37.864;2023-02-10T05:47:11;16.50;;;7.80;;
53714;SDS011;39608;55.630;37.864;2023-02-10T05:52:14;15.45;;;8.20;;
53714;SDS011;39608;55.630;37.864;2023-02-10T05:57:16;15.43;;;8.10;;
53714;SDS011;39608;55.630;37.864;2023-02-10T06:02:18;16.05;;;7.97;;
53714;SDS011;39608;55.630;37.864;2023-02-10T06:07:21;14.30;;;8.27;;
53714;SDS011;39608;55.630;37.864;2023-02-10T06:12:24;14.68;;;6.78;;
53714;SDS011;39608;55.630;37.864;2023-02-10T06:17:26;15.00;;;8.18;;
53714;SDS011;39608;55.630;37.864;2023-02-10T06:22:29;9.88;;;6.55;;
53714;SDS011;39608;55.630;37.864;2023-02-10T06:27:31;11.40;;;6.15;;
53714;SDS011;39608;55.630;37.864;2023-02-10T06:32:34;15.65;;;8.30;;
53714;SDS011;39608;55.630;37.864;2023-02-10T06:37:37;13.23;;;7.38;;
53714;SDS011;39608;55.630;37.864;2023-02-10T06:42:39;15.02;;;8.43;;
53714;SDS011;39608;55.630;37.864;2023-02-10T06:47:41;14.60;;;7.88;;
53714;SDS011;39608;55.630;37.864;2023-02-10T06:52:45;14.35;;;7.10;;
53714;SDS011;39608;55.630;37.864;2023-02-10T06:57:47;14.45;;;7.45;;
53714;SDS011;39608;55.630;37.864;2023-02-10T07:02:49;15.18;;;7.95;;
53714;SDS011;39608;55.630;37.864;2023-02-10T07:07:52;19.45;;;8.25;;
53714;SDS011;39608;55.630;37.864;2023-02-10T07:12:55;13.00;;;7.30;;
53714;SDS011;39608;55.630;37.864;2023-02-10T07:17:56;15.32;;;8.38;;
53714;SDS011;39608;55.630;37.864;2023-02-10T07:23:00;11.50;;;7.20;;
53714;SDS011;39608;55.630;37.864;2023-02-10T07:28:02;14.60;;;8.00;;
53714;SDS011;39608;55.630;37.864;2023-02-10T07:33:04;10.48;;;5.47;;
53714;SDS011;39608;55.630;37.864;2023-02-10T07:38:08;8.00;;;4.82;;
53714;SDS011;39608;55.630;37.864;2023-02-10T07:43:10;10.88;;;6.15;;
53714;SDS011;39608;55.630;37.864;2023-02-10T07:48:12;12.90;;;6.65;;
53714;SDS011;39608;55.630;37.864;2023-02-10T07:53:15;11.60;;;6.72;;
53714;SDS011;39608;55.630;37.864;2023-02-10T07:58:17;9.68;;;5.30;;
53714;SDS011;39608;55.630;37.864;2023-02-10T08:03:19;11.50;;;5.75;;
53714;SDS011;39608;55.630;37.864;2023-02-10T08:08:22;13.30;;;6.38;;
53714;SDS011;39608;55.630;37.864;2023-02-10T08:13:24;11.50;;;6.93;;
53714;SDS011;39608;55.630;37.864;2023-02-10T08:18:27;14.63;;;7.18;;
53714;SDS011;39608;55.630;37.864;2023-02-10T08:23:31;10.90;;;6.55;;
53714;SDS011;39608;55.630;37.864;2023-02-10T08:28:34;16.92;;;7.75;;
53714;SDS011;39608;55.630;37.864;2023-02-10T08:33:39;12.68;;;7.18;;
53714;SDS011;39608;55.630;37.864;2023-02-10T08:38:43;14.18;;;7.50;;
53714;SDS011;39608;55.630;37.864;2023-02-10T08:43:46;10.38;;;6.20;;
53714;SDS011;39608;55.630;37.864;2023-02-10T08:48:48;12.40;;;6.15;;
53714;SDS011;39608;55.630;37.864;2023-02-10T08:53:51;13.77;;;6.90;;
53714;SDS011;39608;55.630;37.864;2023-02-10T08:58:55;12.07;;;6.32;;
53714;SDS011;39608;55.630;37.864;2023-02-10T09:03:57;10.65;;;6.45;;
53714;SDS011;39608;55.630;37.864;2023-02-10T09:09:00;11.70;;;5.88;;
53714;SDS011;39608;55.630;37.864;2023-02-10T09:14:02;11.02;;;6.10;;
53714;SDS011;39608;55.630;37.864;2023-02-10T09:19:04;11.68;;;6.88;;
53714;SDS011;39608;55.630;37.864;2023-02-10T09:24:08;12.02;;;6.63;;
53714;SDS011;39608;55.630;37.864;2023-02-10T09:29:10;9.60;;;6.43;;
53714;SDS011;39608;55.630;37.864;2023-02-10T09:34:13;12.48;;;6.38;;
53714;SDS011;39608;55.630;37.864;2023-02-10T09:39:17;18.08;;;6.72;;
53714;SDS011;39608;55.630;37.864;2023-02-10T09:44:20;8.85;;;5.85;;
53714;SDS011;39608;55.630;37.864;2023-02-10T09:49:30;12.23;;;6.32;;
53714;SDS011;39608;55.630;37.864;2023-02-10T09:54:52;11.40;;;6.57;;
53714;SDS011;39608;55.630;37.864;2023-02-10T09:59:55;9.68;;;6.05;;
53714;SDS011;39608;55.630;37.864;2023-02-10T10:04:59;9.50;;;5.63;;
53714;SDS011;39608;55.630;37.864;2023-02-10T10:10:18;9.13;;;5.68;;
53714;SDS011;39608;55.630;37.864;2023-02-10T10:15:27;11.10;;;5.55;;
53714;SDS011;39608;55.630;37.864;2023-02-10T10:20:43;10.63;;;5.65;;
53714;SDS011;39608;55.630;37.864;2023-02-10T10:31:21;8.52;;;5.07;;
53714;SDS011;39608;55.630;37.864;2023-02-10T10:36:29;10.60;;;5.90;;
53714;SDS011;39608;55.630;37.864;2023-02-10T10:41:36;9.88;;;5.47;;
53714;SDS011;39608;55.630;37.864;2023-02-10T10:46:40;8.20;;;5.13;;
53714;SDS011;39608;55.630;37.864;2023-02-10T10:51:45;8.23;;;5.55;;
53714;SDS011;39608;55.630;37.864;2023-02-10T10:56:50;10.43;;;5.68;;
53714;SDS011;39608;55.630;37.864;2023-02-10T11:01:56;9.97;;;5.73;;
53714;SDS011;39608;55.630;37.864;2023-02-10T11:06:58;10.77;;;5.47;;
53714;SDS011;39608;55.630;37.864;2023-02-10T11:12:04;10.68;;;5.72;;
53714;SDS011;39608;55.630;37.864;2023-02-10T11:17:17;9.32;;;5.90;;
53714;SDS011;39608;55.630;37.864;2023-02-10T11:22:21;11.40;;;5.93;;
53714;SDS011;39608;55.630;37.864;2023-02-10T11:27:24;9.52;;;5.82;;
53714;SDS011;39608;55.630;37.864;2023-02-10T11:32:27;10.48;;;6.07;;
53714;SDS011;39608;55.630;37.864;2023-02-10T11:37:32;10.75;;;6.07;;
53714;SDS011;39608;55.630;37.864;2023-02-10T11:42:38;10.52;;;6.00;;
53714;SDS011;39608;55.630;37.864;2023-02-10T11:47:40;10.35;;;5.80;;
53714;SDS011;39608;55.630;37.864;2023-02-10T11:52:42;11.23;;;6.25;;
53714;SDS011;39608;55.630;37.864;2023-02-10T11:57:48;11.05;;;5.60;;
53714;SDS011;39608;55.630;37.864;2023-02-10T12:03:25;11.45;;;5.60;;
53714;SDS011;39608;55.630;37.864;2023-02-10T12:08:38;15.13;;;6.03;;
53714;SDS011;39608;55.630;37.864;2023-02-10T12:13:51;13.93;;;6.00;;
53714;SDS011;39608;55.630;37.864;2023-02-10T12:19:03;9.77;;;6.22;;
53714;SDS011;39608;55.630;37.864;2023-02-10T12:24:18;13.20;;;6.82;;
53714;SDS011;39608;55.630;37.864;2023-02-10T12:29:40;9.93;;;5.95;;
53714;SDS011;39608;55.630;37.864;2023-02-10T12:34:54;15.23;;;6.40;;
53714;SDS011;39608;55.630;37.864;2023-02-10T12:45:46;14.32;;;6.88;;
53714;SDS011;39608;55.630;37.864;2023-02-10T12:56:30;9.77;;;5.30;;
53714;SDS011;39608;55.630;37.864;2023-02-10T13:01:40;11.13;;;6.00;;
53714;SDS011;39608;55.630;37.864;2023-02-10T13:06:46;13.45;;;6.18;;
53714;SDS011;39608;55.630;37.864;2023-02-10T13:11:59;12.88;;;6.68;;
53714;SDS011;39608;55.630;37.864;2023-02-10T13:17:09;11.40;;;5.50;;
53714;SDS011;39608;55.630;37.864;2023-02-10T13:22:13;10.38;;;6.05;;
53714;SDS011;39608;55.630;37.864;2023-02-10T13:27:23;14.65;;;6.60;;
53714;SDS011;39608;55.630;37.864;2023-02-10T13:32:39;18.88;;;6.93;;
53714;SDS011;39608;55.630;37.864;2023-02-10T13:37:55;13.23;;;6.18;;
53714;SDS011;39608;55.630;37.864;2023-02-10T13:42:59;10.57;;;6.60;;
53714;SDS011;39608;55.630;37.864;2023-02-10T13:48:06;9.20;;;5.70;;
53714;SDS011;39608;55.630;37.864;2023-02-10T13:53:26;9.88;;;5.75;;
53714;SDS011;39608;55.630;37.864;2023-02-10T13:58:31;10.55;;;6.40;;
53714;SDS011;39608;55.630;37.864;2023-02-10T14:03:36;14.20;;;6.38;;
53714;SDS011;39608;55.630;37.864;2023-02-10T14:08:38;10.25;;;5.00;;
53714;SDS011;39608;55.630;37.864;2023-02-10T14:13:42;10.40;;;6.22;;
53714;SDS011;39608;55.630;37.864;2023-02-10T14:18:56;9.00;;;5.15;;
53714;SDS011;39608;55.630;37.864;2023-02-10T14:24:00;11.13;;;6.10;;
53714;SDS011;39608;55.630;37.864;2023-02-10T14:29:03;8.65;;;4.97;;
53714;SDS011;39608;55.630;37.864;2023-02-10T14:34:18;14.50;;;6.88;;
53714;SDS011;39608;55.630;37.864;2023-02-10T14:39:24;9.40;;;5.90;;
53714;SDS011;39608;55.630;37.864;2023-02-10T14:44:28;12.02;;;6.80;;
53714;SDS011;39608;55.630;37.864;2023-02-10T14:49:37;11.05;;;6.28;;
53714;SDS011;39608;55.630;37.864;2023-02-10T14:54:39;10.80;;;5.90;;
53714;SDS011;39608;55.630;37.864;2023-02-10T14:59:41;12.38;;;6.28;;
53714;SDS011;39608;55.630;37.864;2023-02-10T15:04:45;12.05;;;6.10;;
53714;SDS011;39608;55.630;37.864;2023-02-10T15:09:49;11.68;;;5.38;;
53714;SDS011;39608;55.630;37.864;2023-02-10T15:14:52;10.75;;;5.85;;
53714;SDS011;39608;55.630;37.864;2023-02-10T15:20:18;11.93;;;4.85;;
53714;SDS011;39608;55.630;37.864;2023-02-10T15:25:27;11.23;;;6.32;;
53714;SDS011;39608;55.630;37.864;2023-02-10T15:30:40;10.70;;;5.97;;
53714;SDS011;39608;55.630;37.864;2023-02-10T15:36:09;10.25;;;5.22;;
53714;SDS011;39608;55.630;37.864;2023-02-10T15:41:27;11.27;;;6.05;;
53714;SDS011;39608;55.630;37.864;2023-02-10T15:46:35;13.70;;;6.88;;
53714;SDS011;39608;55.630;37.864;2023-02-10T15:51:39;13.52;;;6.80;;
53714;SDS011;39608;55.630;37.864;2023-02-10T15:56:53;10.52;;;5.57;;
53714;SDS011;39608;55.630;37.864;2023-02-10T16:01:56;14.68;;;6.47;;
53714;SDS011;39608;55.630;37.864;2023-02-10T16:07:00;12.68;;;6.65;;
53714;SDS011;39608;55.630;37.864;2023-02-10T16:12:04;12.10;;;6.55;;
53714;SDS011;39608;55.630;37.864;2023-02-10T16:17:06;10.52;;;6.10;;
53714;SDS011;39608;55.630;37.864;2023-02-10T16:22:10;10.48;;;5.95;;
53714;SDS011;39608;55.630;37.864;2023-02-10T16:27:12;11.15;;;6.95;;
53714;SDS011;39608;55.630;37.864;2023-02-10T16:32:23;13.15;;;8.10;;
53714;SDS011;39608;55.630;37.864;2023-02-10T16:37:26;13.38;;;6.38;;
53714;SDS011;39608;55.630;37.864;2023-02-10T16:42:29;13.60;;;5.70;;
53714;SDS011;39608;55.630;37.864;2023-02-10T16:47:31;11.95;;;6.43;;
53714;SDS011;39608;55.630;37.864;2023-02-10T16:52:35;18.55;;;8.63;;
53714;SDS011;39608;55.630;37.864;2023-02-10T16:57:37;14.82;;;7.82;;
53714;SDS011;39608;55.630;37.864;2023-02-10T17:02:39;15.07;;;8.05;;
53714;SDS011;39608;55.630;37.864;2023-02-10T17:07:43;14.18;;;7.35;;
53714;SDS011;39608;55.630;37.864;2023-02-10T17:12:45;12.75;;;7.03;;
53714;SDS011;39608;55.630;37.864;2023-02-10T17:17:47;24.25;;;8.55;;
53714;SDS011;39608;55.630;37.864;2023-02-10T17:22:51;18.90;;;8.38;;
53714;SDS011;39608;55.630;37.864;2023-02-10T17:27:53;13.73;;;8.35;;
53714;SDS011;39608;55.630;37.864;2023-02-10T17:32:55;15.50;;;8.13;;
53714;SDS011;39608;55.630;37.864;2023-02-10T17:38:00;16.50;;;8.25;;
53714;SDS011;39608;55.630;37.864;2023-02-10T17:43:16;16.02;;;8.52;;
53714;SDS011;39608;55.630;37.864;2023-02-10T17:48:18;17.02;;;8.77;;
53714;SDS011;39608;55.630;37.864;2023-02-10T17:53:21;16.67;;;8.82;;
53714;SDS011;39608;55.630;37.864;2023-02-10T17:58:23;12.10;;;7.40;;
53714;SDS011;39608;55.630;37.864;2023-02-10T18:03:27;14.77;;;8.55;;
53714;SDS011;39608;55.630;37.864;2023-02-10T18:08:30;21.65;;;10.35;;
53714;SDS011;39608;55.630;37.864;2023-02-10T18:13:32;17.75;;;8.30;;
53714;SDS011;39608;55.630;37.864;2023-02-10T18:18:34;20.00;;;10.20;;
53714;SDS011;39608;55.630;37.864;2023-02-10T18:23:38;18.15;;;9.75;;
53714;SDS011;39608;55.630;37.864;2023-02-10T18:28:48;19.67;;;10.23;;
53714;SDS011;39608;55.630;37.864;2023-02-10T18:33:50;17.55;;;9.75;;
53714;SDS011;39608;55.630;37.864;2023-02-10T18:38:53;18.38;;;7.65;;
53714;SDS011;39608;55.630;37.864;2023-02-10T18:43:55;24.42;;;10.77;;
53714;SDS011;39608;55.630;37.864;2023-02-10T18:48:57;17.45;;;9.30;;
53714;SDS011;39608;55.630;37.864;2023-02-10T18:54:02;17.73;;;9.15;;
53714;SDS011;39608;55.630;37.864;2023-02-10T18:59:04;20.67;;;9.25;;
53714;SDS011;39608;55.630;37.864;2023-02-10T19:04:06;18.65;;;9.63;;
53714;SDS011;39608;55.630;37.864;2023-02-10T19:09:09;21.10;;;10.38;;
53714;SDS011;39608;55.630;37.864;2023-02-10T19:14:11;17.27;;;8.30;;
53714;SDS011;39608;55.630;37.864;2023-02-10T19:19:13;16.88;;;9.75;;
53714;SDS011;39608;55.630;37.864;2023-02-10T19:24:17;18.60;;;8.98;;
53714;SDS011;39608;55.630;37.864;2023-02-10T19:29:19;18.80;;;8.68;;
53714;SDS011;39608;55.630;37.864;2023-02-10T19:34:21;19.83;;;9.43;;
53714;SDS011;39608;55.630;37.864;2023-02-10T19:39:25;25.33;;;9.60;;
53714;SDS011;39608;55.630;37.864;2023-02-10T19:44:27;21.25;;;10.02;;
53714;SDS011;39608;55.630;37.864;2023-02-10T19:49:31;21.10;;;10.07;;
53714;SDS011;39608;55.630;37.864;2023-02-10T19:54:34;19.45;;;9.88;;
53714;SDS011;39608;55.630;37.864;2023-02-10T19:59:36;21.65;;;10.05;;
53714;SDS011;39608;55.630;37.864;2023-02-10T20:04:40;21.02;;;10.45;;
53714;SDS011;39608;55.630;37.864;2023-02-10T20:09:43;25.50;;;12.55;;
53714;SDS011;39608;55.630;37.864;2023-02-10T20:14:45;20.50;;;10.90;;
53714;SDS011;39608;55.630;37.864;2023-02-10T20:19:47;20.27;;;9.90;;
53714;SDS011;39608;55.630;37.864;2023-02-10T20:24:50;17.80;;;9.90;;
53714;SDS011;39608;55.630;37.864;2023-02-10T20:29:52;17.10;;;9.18;;
53714;SDS011;39608;55.630;37.864;2023-02-10T20:34:54;17.92;;;9.93;;
53714;SDS011;39608;55.630;37.864;2023-02-10T20:39:58;18.05;;;9.70;;
53714;SDS011;39608;55.630;37.864;2023-02-10T20:45:00;18.90;;;9.23;;
53714;SDS011;39608;55.630;37.864;2023-02-10T20:50:04;18.13;;;8.98;;
53714;SDS011;39608;55.630;37.864;2023-02-10T20:55:08;20.67;;;10.55;;
53714;SDS011;39608;55.630;37.864;2023-02-10T21:00:10;21.25;;;10.32;;
53714;SDS011;39608;55.630;37.864;2023-02-10T21:05:13;18.73;;;10.13;;
53714;SDS011;39608;55.630;37.864;2023-02-10T21:10:17;18.95;;;9.55;;
53714;SDS011;39608;55.630;37.864;2023-02-10T21:15:19;15.40;;;8.15;;
53714;SDS011;39608;55.630;37.864;2023-02-10T21:20:21;20.65;;;11.25;;
53714;SDS011;39608;55.630;37.864;2023-02-10T21:25:26;19.95;;;9.63;;
53714;SDS011;39608;55.630;37.864;2023-02-10T21:30:28;21.88;;;10.57;;
53714;SDS011;39608;55.630;37.864;2023-02-10T21:35:30;15.25;;;9.50;;
53714;SDS011;39608;55.630;37.864;2023-02-10T21:40:34;19.33;;;10.05;;
53714;SDS011;39608;55.630;37.864;2023-02-10T21:45:36;19.67;;;9.98;;
53714;SDS011;39608;55.630;37.864;2023-02-10T21:50:39;23.98;;;9.80;;
53714;SDS011;39608;55.630;37.864;2023-02-10T21:55:42;18.60;;;9.25;;
53714;SDS011;39608;55.630;37.864;2023-02-10T22:00:44;20.80;;;9.48;;
53714;SDS011;39608;55.630;37.864;2023-02-10T22:05:52;18.40;;;10.25;;
53714;SDS011;39608;55.630;37.864;2023-02-10T22:10:56;22.42;;;10.57;;
53714;SDS011;39608;55.630;37.864;2023-02-10T22:15:58;22.15;;;9.80;;
53714;SDS011;39608;55.630;37.864;2023-02-10T22:21:02;19.17;;;9.25;;
53714;SDS011;39608;55.630;37.864;2023-02-10T22:26:07;22.08;;;9.27;;
53714;SDS011;39608;55.630;37.864;2023-02-10T22:31:10;14.88;;;8.27;;
53714;SDS011;39608;55.630;37.864;2023-02-10T22:36:14;15.27;;;8.30;;
53714;SDS011;39608;55.630;37.864;2023-02-10T22:41:19;16.45;;;8.85;;
53714;SDS011;39608;55.630;37.864;2023-02-10T22:46:22;20.40;;;9.90;;
53714;SDS011;39608;55.630;37.864;2023-02-10T22:51:27;13.25;;;8.02;;
53714;SDS011;39608;55.630;37.864;2023-02-10T22:56:32;18.17;;;8.65;;
53714;SDS011;39608;55.630;37.864;2023-02-10T23:01:36;15.40;;;8.07;;
53714;SDS011;39608;55.630;37.864;2023-02-10T23:06:40;20.50;;;9.38;;
53714;SDS011;39608;55.630;37.864;2023-02-10T23:11:45;18.33;;;9.27;;
53714;SDS011;39608;55.630;37.864;2023-02-10T23:16:48;17.15;;;9.75;;
53714;SDS011;39608;55.630;37.864;2023-02-10T23:21:52;18.08;;;7.68;;
53714;SDS011;39608;55.630;37.864;2023-02-10T23:26:55;23.40;;;9.20;;
53714;SDS011;39608;55.630;37.864;2023-02-10T23:31:57;15.93;;;8.57;;
53714;SDS011;39608;55.630;37.864;2023-02-10T23:36:59;17.17;;;8.27;;
53714;SDS011;39608;55.630;37.864;2023-02-10T23:42:02;16.67;;;7.70;;
53714;SDS011;39608;55.630;37.864;2023-02-10T23:47:04;16.73;;;7.30;;
53714;SDS011;39608;55.630;37.864;2023-02-10T23:52:06;16.42;;;8.13;;
53714;SDS011;39608;55.630;37.864;2023-02-10T23:57:10;19.60;;;8.10;;
